createdAt,value
2023-05-21T00:01:13.441Z,101301.95
2023-05-21T00:03:42.870Z,101303.34
2023-05-21T00:06:13.863Z,101302.80
2023-05-21T00:08:43.039Z,101301.17
2023-05-21T00:11:14.064Z,101297.16
2023-05-21T00:13:44.735Z,101296.05
2023-05-21T00:16:15.570Z,101298.32
2023-05-21T00:18:44.776Z,101297.55
2023-05-21T00:21:15.674Z,101301.66
2023-05-21T00:23:44.771Z,101299.42
2023-05-21T00:26:15.519Z,101299.70
2023-05-21T00:28:46.189Z,101302.70
2023-05-21T00:31:16.978Z,101299.45
2023-05-21T00:33:46.120Z,101302.89
2023-05-21T00:36:16.826Z,101303.12
2023-05-21T00:38:47.504Z,101306.64
2023-05-21T00:41:19.121Z,101310.63
2023-05-21T00:43:49.817Z,101305.09
2023-05-21T00:46:21.391Z,101311.70
2023-05-21T00:48:52.584Z,101308.27
2023-05-21T00:51:23.617Z,101308.49
2023-05-21T00:53:52.770Z,101304.29
2023-05-21T00:56:24.934Z,101307.25
2023-05-21T00:58:56.262Z,101307.27
2023-05-21T01:01:27.006Z,101300.59
2023-05-21T01:03:57.743Z,101296.67
2023-05-21T01:06:27.267Z,101296.55
2023-05-21T01:08:58.231Z,101299.84
2023-05-21T01:11:38.621Z,101295.49
2023-05-21T01:14:10.735Z,101296.14
2023-05-21T01:16:43.931Z,101290.16
2023-05-21T01:19:16.466Z,101284.71
2023-05-21T01:21:50.253Z,101280.38
2023-05-21T01:24:21.129Z,101285.05
2023-05-21T01:26:50.188Z,101281.73
2023-05-21T01:29:20.889Z,101286.98
2023-05-21T01:31:59.440Z,101281.48
2023-05-21T01:34:35.211Z,101281.30
2023-05-21T01:37:13.322Z,101278.20
2023-05-21T01:39:51.166Z,101275.08
2023-05-21T01:42:24.762Z,101282.34
2023-05-21T01:44:58.084Z,101279.81
2023-05-21T01:47:31.959Z,101280.73
2023-05-21T01:50:03.031Z,101280.28
2023-05-21T01:52:33.738Z,101281.06
2023-05-21T01:55:05.182Z,101280.70
2023-05-21T01:57:42.361Z,101276.59
2023-05-21T02:00:14.940Z,101271.70
2023-05-21T02:02:45.833Z,101275.87
2023-05-21T02:05:17.111Z,101278.02
2023-05-21T02:07:49.469Z,101277.38
2023-05-21T02:10:20.219Z,101273.67
2023-05-21T02:12:51.065Z,101272.77
2023-05-21T02:15:21.735Z,101267.41
2023-05-21T02:17:52.507Z,101263.77
2023-05-21T02:20:23.689Z,101262.77
2023-05-21T02:22:54.453Z,101262.04
2023-05-21T02:25:25.105Z,101261.09
2023-05-21T02:27:55.788Z,101263.02
2023-05-21T02:30:26.733Z,101262.86
2023-05-21T02:32:55.869Z,101267.45
2023-05-21T02:35:26.768Z,101260.39
2023-05-21T02:37:55.868Z,101256.83
2023-05-21T02:40:26.733Z,101260.94
2023-05-21T02:42:57.449Z,101257.16
2023-05-21T02:45:28.478Z,101259.25
2023-05-21T02:47:59.257Z,101260.86
2023-05-21T02:50:29.989Z,101256.10
2023-05-21T02:53:00.728Z,101250.55
2023-05-21T02:55:31.438Z,101249.77
2023-05-21T02:58:02.092Z,101251.23
2023-05-21T03:00:32.700Z,101245.30
2023-05-21T03:03:03.574Z,101244.80
2023-05-21T03:05:32.701Z,101243.54
2023-05-21T03:08:03.450Z,101247.60
2023-05-21T03:10:34.114Z,101246.91
2023-05-21T03:13:06.045Z,101246.59
2023-05-21T03:15:37.839Z,101248.91
2023-05-21T03:18:08.949Z,101249.96
2023-05-21T03:20:39.632Z,101251.77
2023-05-21T03:23:10.657Z,101252.12
2023-05-21T03:25:41.412Z,101253.16
2023-05-21T03:28:12.077Z,101252.44
2023-05-21T03:30:42.712Z,101251.52
2023-05-21T03:33:13.799Z,101251.61
2023-05-21T03:35:44.609Z,101255.46
2023-05-21T03:38:13.824Z,101256.70
2023-05-21T03:40:44.507Z,101260.02
2023-05-21T03:43:15.272Z,101264.09
2023-05-21T03:45:44.769Z,101257.48
2023-05-21T03:48:15.612Z,101261.43
2023-05-21T03:50:46.333Z,101259.52
2023-05-21T03:53:17.096Z,101255.75
2023-05-21T03:55:47.898Z,101254.48
2023-05-21T03:58:18.706Z,101253.48
2023-05-21T04:00:47.956Z,101247.30
2023-05-21T04:03:18.828Z,101244.80
2023-05-21T04:05:49.600Z,101246.04
2023-05-21T04:08:20.403Z,101244.81
2023-05-21T04:10:51.105Z,101241.40
2023-05-21T04:13:21.856Z,101244.25
2023-05-21T04:15:52.684Z,101246.63
2023-05-21T04:18:23.490Z,101246.73
2023-05-21T04:20:54.183Z,101251.31
2023-05-21T04:23:24.865Z,101256.04
2023-05-21T04:25:55.603Z,101250.17
2023-05-21T04:28:29.303Z,101254.39
2023-05-21T04:31:00.141Z,101254.75
2023-05-21T04:33:31.001Z,101255.23
2023-05-21T04:36:01.647Z,101257.10
2023-05-21T04:38:32.370Z,101258.52
2023-05-21T04:41:02.997Z,101256.52
2023-05-21T04:43:33.772Z,101255.52
2023-05-21T04:46:04.483Z,101256.52
2023-05-21T04:48:35.181Z,101257.63
2023-05-21T04:51:05.953Z,101257.91
2023-05-21T04:53:36.656Z,101261.71
2023-05-21T04:56:07.892Z,101260.90
2023-05-21T04:58:38.764Z,101259.23
2023-05-21T05:01:09.818Z,101261.23
2023-05-21T05:03:40.676Z,101261.29
2023-05-21T05:06:11.523Z,101265.30
2023-05-21T05:08:42.237Z,101266.02
2023-05-21T05:11:12.955Z,101265.69
2023-05-21T05:13:43.685Z,101266.29
2023-05-21T05:16:14.468Z,101262.40
2023-05-21T05:18:45.355Z,101259.75
2023-05-21T05:21:16.274Z,101258.60
2023-05-21T05:23:46.954Z,101257.56
2023-05-21T05:26:17.630Z,101257.17
2023-05-21T05:28:48.332Z,101256.08
2023-05-21T05:31:19.184Z,101256.70
2023-05-21T05:33:50.361Z,101254.50
2023-05-21T05:36:21.073Z,101256.98
2023-05-21T05:38:52.119Z,101258.23
2023-05-21T05:41:22.800Z,101260.85
2023-05-21T05:43:53.520Z,101257.69
2023-05-21T05:46:24.248Z,101255.15
2023-05-21T05:48:55.121Z,101254.91
2023-05-21T05:51:25.931Z,101254.77
2023-05-21T05:53:56.723Z,101251.34
2023-05-21T05:56:27.368Z,101249.09
2023-05-21T05:58:58.672Z,101248.41
2023-05-21T06:01:29.439Z,101245.90
2023-05-21T06:04:01.940Z,101245.48
2023-05-21T06:06:32.636Z,101241.41
2023-05-21T06:09:03.473Z,101241.73
2023-05-21T06:11:34.077Z,101247.02
2023-05-21T06:14:04.791Z,101239.02
2023-05-21T06:16:35.604Z,101242.99
2023-05-21T06:19:06.528Z,101243.09
2023-05-21T06:21:37.344Z,101240.98
2023-05-21T06:24:09.940Z,101240.86
2023-05-21T06:26:40.633Z,101239.90
2023-05-21T06:29:11.958Z,101243.50
2023-05-21T06:31:43.744Z,101238.35
2023-05-21T06:34:14.521Z,101239.60
2023-05-21T06:36:45.121Z,101238.64
2023-05-21T06:39:15.965Z,101238.16
2023-05-21T06:41:46.932Z,101238.14
2023-05-21T06:44:17.677Z,101236.20
2023-05-21T06:46:48.419Z,101241.46
2023-05-21T06:49:19.173Z,101241.50
2023-05-21T06:51:49.970Z,101238.41
2023-05-21T06:54:20.672Z,101238.07
2023-05-21T06:56:51.757Z,101238.91
2023-05-21T06:59:22.620Z,101239.38
2023-05-21T07:01:54.718Z,101239.50
2023-05-21T07:04:25.454Z,101238.70
2023-05-21T07:06:56.130Z,101243.06
2023-05-21T07:09:27.150Z,101245.02
2023-05-21T07:11:57.870Z,101243.05
2023-05-21T07:14:28.634Z,101244.23
2023-05-21T07:16:59.389Z,101244.72
2023-05-21T07:19:30.241Z,101246.13
2023-05-21T07:22:00.923Z,101246.60
2023-05-21T07:24:31.991Z,101249.52
2023-05-21T07:27:06.515Z,101243.53
2023-05-21T07:29:42.738Z,101245.35
2023-05-21T07:32:13.513Z,101244.94
2023-05-21T07:34:44.302Z,101245.70
2023-05-21T07:37:15.047Z,101244.71
2023-05-21T07:39:45.848Z,101244.69
2023-05-21T07:42:16.679Z,101246.85
2023-05-21T07:44:47.393Z,101251.59
2023-05-21T07:47:18.193Z,101248.30
2023-05-21T07:49:49.024Z,101246.17
2023-05-21T07:52:19.785Z,101247.84
2023-05-21T07:54:50.510Z,101244.25
2023-05-21T07:57:21.244Z,101240.36
2023-05-21T07:59:52.023Z,101243.36
2023-05-21T08:02:22.766Z,101243.66
2023-05-21T08:04:53.832Z,101239.13
2023-05-21T08:07:24.554Z,101237.42
2023-05-21T08:09:55.286Z,101243.71
2023-05-21T08:12:25.994Z,101240.02
2023-05-21T08:14:57.278Z,101240.52
2023-05-21T08:17:28.007Z,101239.70
2023-05-21T08:19:58.727Z,101242.62
2023-05-21T08:22:29.412Z,101246.20
2023-05-21T08:25:00.073Z,101242.97
2023-05-21T08:27:30.919Z,101249.98
2023-05-21T08:30:01.668Z,101247.89
2023-05-21T08:32:32.418Z,101249.52
2023-05-21T08:35:03.214Z,101243.14
2023-05-21T08:37:33.908Z,101246.95
2023-05-21T08:40:06.151Z,101242.61
2023-05-21T08:42:42.832Z,101245.27
2023-05-21T08:45:17.733Z,101245.84
2023-05-21T08:47:48.435Z,101240.67
2023-05-21T08:50:19.345Z,101240.42
2023-05-21T08:52:51.688Z,101243.90
2023-05-21T08:55:24.653Z,101242.01
2023-05-21T08:57:55.741Z,101240.98
2023-05-21T09:00:26.494Z,101238.41
2023-05-21T09:02:59.743Z,101234.02
2023-05-21T09:05:31.269Z,101240.64
2023-05-21T09:08:05.832Z,101235.66
2023-05-21T09:10:39.074Z,101243.06
2023-05-21T09:13:12.716Z,101244.25
2023-05-21T09:15:43.977Z,101241.73
2023-05-21T09:18:14.942Z,101236.45
2023-05-21T09:20:45.864Z,101240.98
2023-05-21T09:23:19.112Z,101237.29
2023-05-21T09:25:50.698Z,101235.63
2023-05-21T09:28:21.536Z,101233.74
2023-05-21T09:30:53.868Z,101242.39
2023-05-21T09:33:28.213Z,101243.35
2023-05-21T09:35:59.046Z,101239.28
2023-05-21T09:38:29.818Z,101241.67
2023-05-21T09:41:04.694Z,101239.36
2023-05-21T09:43:36.281Z,101241.78
2023-05-21T09:46:07.169Z,101237.98
2023-05-21T09:48:39.449Z,101237.95
2023-05-21T09:51:12.170Z,101235.12
2023-05-21T09:53:48.595Z,101235.61
2023-05-21T09:56:21.422Z,101232.66
2023-05-21T09:58:53.402Z,101227.81
2023-05-21T10:01:25.189Z,101230.33
2023-05-21T10:03:57.959Z,101230.56
2023-05-21T10:06:30.107Z,101225.86
2023-05-21T10:09:04.656Z,101225.67
2023-05-21T10:11:37.288Z,101223.21
2023-05-21T10:14:09.757Z,101227.65
2023-05-21T10:16:40.972Z,101224.95
2023-05-21T10:19:13.389Z,101224.81
2023-05-21T10:21:45.011Z,101224.31
2023-05-21T10:24:17.077Z,101220.77
2023-05-21T10:26:49.030Z,101216.10
2023-05-21T10:29:21.688Z,101215.84
2023-05-21T10:31:54.193Z,101217.33
2023-05-21T10:34:25.204Z,101209.30
2023-05-21T10:36:57.409Z,101209.27
2023-05-21T10:39:29.988Z,101211.09
2023-05-21T10:42:09.496Z,101213.27
2023-05-21T10:44:55.727Z,101206.32
2023-05-21T10:47:54.222Z,101211.16
2023-05-21T10:50:54.489Z,101204.34
2023-05-21T10:53:35.700Z,101203.28
2023-05-21T10:56:18.496Z,101201.06
2023-05-21T10:59:12.166Z,101196.02
2023-05-21T11:01:43.633Z,101195.96
2023-05-21T11:04:14.390Z,101195.27
2023-05-21T11:06:48.316Z,101193.58
2023-05-21T11:09:19.094Z,101191.59
2023-05-21T11:11:52.812Z,101196.09
2023-05-21T11:14:34.672Z,101189.85
2023-05-21T11:17:10.309Z,101190.14
2023-05-21T11:19:42.636Z,101184.64
2023-05-21T11:22:23.001Z,101185.91
2023-05-21T11:24:52.668Z,101183.91
2023-05-21T11:27:42.992Z,101184.35
2023-05-21T11:30:18.557Z,101182.77
2023-05-21T11:33:49.192Z,101183.13
2023-05-21T11:36:14.463Z,101182.55
2023-05-21T11:39:05.119Z,101179.38
2023-05-21T11:41:51.375Z,101181.05
2023-05-21T11:44:37.634Z,101177.70
2023-05-21T11:47:10.096Z,101182.63
2023-05-21T11:49:40.992Z,101181.59
2023-05-21T11:52:13.559Z,101180.38
2023-05-21T11:54:54.421Z,101180.24
2023-05-21T11:57:26.881Z,101183.56
2023-05-21T11:59:58.816Z,101185.37
2023-05-21T12:02:31.064Z,101182.04
2023-05-21T12:05:01.900Z,101178.16
2023-05-21T12:07:32.602Z,101174.44
2023-05-21T12:10:03.392Z,101180.82
2023-05-21T12:12:50.069Z,101182.52
2023-05-21T12:15:26.226Z,101173.94
2023-05-21T12:17:57.573Z,101172.04
2023-05-21T12:20:31.348Z,101175.61
2023-05-21T12:23:02.140Z,101176.58
2023-05-21T12:25:33.019Z,101172.73
2023-05-21T12:28:04.180Z,101172.81
2023-05-21T12:30:35.137Z,101175.35
2023-05-21T12:33:06.046Z,101170.06
2023-05-21T12:35:37.202Z,101176.13
2023-05-21T12:38:08.637Z,101167.59
2023-05-21T12:40:40.227Z,101171.85
2023-05-21T12:43:11.554Z,101168.61
2023-05-21T12:45:43.221Z,101165.70
2023-05-21T12:48:14.096Z,101167.52
2023-05-21T12:50:45.055Z,101160.92
2023-05-21T12:53:15.752Z,101156.88
2023-05-21T12:55:46.640Z,101154.52
2023-05-21T12:58:21.744Z,101155.26
2023-05-21T13:00:54.606Z,101154.27
2023-05-21T13:03:27.858Z,101148.75
2023-05-21T13:06:01.401Z,101153.14
2023-05-21T13:08:32.125Z,101151.45
2023-05-21T13:11:03.649Z,101154.06
2023-05-21T13:13:34.437Z,101150.84
2023-05-21T13:16:05.688Z,101146.31
2023-05-21T13:18:36.432Z,101145.83
2023-05-21T13:21:07.444Z,101145.88
2023-05-21T13:23:38.223Z,101147.77
2023-05-21T13:26:08.957Z,101146.96
2023-05-21T13:28:41.305Z,101141.44
2023-05-21T13:31:13.157Z,101136.40
2023-05-21T13:33:43.965Z,101139.95
2023-05-21T13:36:14.686Z,101137.96
2023-05-21T13:38:45.467Z,101135.92
2023-05-21T13:41:16.207Z,101133.68
2023-05-21T13:43:47.005Z,101133.98
2023-05-21T13:46:17.712Z,101131.45
2023-05-21T13:48:48.549Z,101135.42
2023-05-21T13:51:37.124Z,101132.52
2023-05-21T13:54:08.606Z,101128.23
2023-05-21T13:56:39.335Z,101129.18
2023-05-21T13:59:10.065Z,101128.84
2023-05-21T14:01:40.781Z,101128.20
2023-05-21T14:04:11.642Z,101125.77
2023-05-21T14:06:42.436Z,101131.27
2023-05-21T14:09:13.572Z,101125.41
2023-05-21T14:11:44.333Z,101128.83
2023-05-21T14:14:15.151Z,101127.15
2023-05-21T14:16:46.891Z,101125.27
2023-05-21T14:19:18.089Z,101126.40
2023-05-21T14:21:51.514Z,101121.66
2023-05-21T14:24:22.269Z,101120.78
2023-05-21T14:26:53.040Z,101118.98
2023-05-21T14:29:23.745Z,101118.12
2023-05-21T14:31:54.563Z,101117.71
2023-05-21T14:34:25.484Z,101116.76
2023-05-21T14:36:56.208Z,101116.92
2023-05-21T14:39:26.965Z,101119.20
2023-05-21T14:41:57.652Z,101117.77
2023-05-21T14:44:28.324Z,101118.08
2023-05-21T14:46:59.151Z,101115.25
2023-05-21T14:49:29.853Z,101121.20
2023-05-21T14:52:00.557Z,101121.05
2023-05-21T14:54:31.247Z,101123.23
2023-05-21T14:57:01.955Z,101120.61
2023-05-21T14:59:32.726Z,101117.93
2023-05-21T15:02:03.530Z,101119.58
2023-05-21T15:04:34.266Z,101118.98
2023-05-21T15:07:05.207Z,101116.29
2023-05-21T15:09:35.913Z,101113.08
2023-05-21T15:12:07.157Z,101115.53
2023-05-21T15:14:37.940Z,101112.44
2023-05-21T15:17:08.741Z,101110.84
2023-05-21T15:19:39.559Z,101112.52
2023-05-21T15:22:10.773Z,101111.77
2023-05-21T15:24:41.567Z,101111.20
2023-05-21T15:27:12.380Z,101113.48
2023-05-21T15:29:43.117Z,101112.42
2023-05-21T15:32:13.947Z,101116.88
2023-05-21T15:34:44.869Z,101113.98
2023-05-21T15:37:15.625Z,101114.07
2023-05-21T15:39:47.708Z,101116.41
2023-05-21T15:42:18.644Z,101110.47
2023-05-21T15:44:49.361Z,101106.02
2023-05-21T15:47:20.013Z,101105.81
2023-05-21T15:49:50.707Z,101100.92
2023-05-21T15:52:21.498Z,101100.45
2023-05-21T15:54:52.267Z,101103.47
2023-05-21T15:57:23.008Z,101098.06
2023-05-21T15:59:53.732Z,101098.09
2023-05-21T16:02:24.498Z,101092.14
2023-05-21T16:04:55.348Z,101091.16
2023-05-21T16:07:25.988Z,101091.11
2023-05-21T16:09:56.658Z,101089.58
2023-05-21T16:12:27.369Z,101088.52
2023-05-21T16:14:58.147Z,101088.80
2023-05-21T16:17:29.142Z,101084.00
2023-05-21T16:19:59.933Z,101083.83
2023-05-21T16:22:30.614Z,101082.44
2023-05-21T16:25:01.371Z,101085.67
2023-05-21T16:27:32.083Z,101085.45
2023-05-21T16:30:02.813Z,101084.20
2023-05-21T16:32:33.542Z,101079.98
2023-05-21T16:35:05.637Z,101076.77
2023-05-21T16:37:36.618Z,101075.23
2023-05-21T16:40:09.597Z,101081.20
2023-05-21T16:42:40.311Z,101083.20
2023-05-21T16:45:12.631Z,101083.77
2023-05-21T16:47:43.369Z,101081.39
2023-05-21T16:50:14.184Z,101080.69
2023-05-21T16:52:45.095Z,101085.46
2023-05-21T16:55:22.401Z,101087.91
2023-05-21T16:57:53.173Z,101089.04
2023-05-21T17:00:24.081Z,101091.45
2023-05-21T17:02:55.206Z,101091.27
2023-05-21T17:05:26.212Z,101091.23
2023-05-21T17:07:56.929Z,101094.05
2023-05-21T17:10:27.700Z,101094.19
2023-05-21T17:13:01.759Z,101095.62
2023-05-21T17:15:35.029Z,101095.02
2023-05-21T17:18:05.848Z,101090.77
2023-05-21T17:20:36.577Z,101087.83
2023-05-21T17:23:07.321Z,101085.02
2023-05-21T17:25:38.985Z,101084.62
2023-05-21T17:28:10.146Z,101090.86
2023-05-21T17:30:40.986Z,101087.72
2023-05-21T17:33:11.664Z,101085.73
2023-05-21T17:35:42.447Z,101082.24
2023-05-21T17:38:13.159Z,101082.27
2023-05-21T17:40:43.936Z,101076.48
2023-05-21T17:43:14.586Z,101079.49
2023-05-21T17:45:45.516Z,101083.46
2023-05-21T17:48:16.466Z,101081.80
2023-05-21T17:50:48.183Z,101082.20
2023-05-21T17:53:19.013Z,101081.29
2023-05-21T17:55:49.865Z,101081.94
2023-05-21T17:58:20.497Z,101085.55
2023-05-21T18:00:51.206Z,101083.77
2023-05-21T18:03:21.995Z,101082.93
2023-05-21T18:05:52.886Z,101084.20
2023-05-21T18:08:23.541Z,101086.27
2023-05-21T18:10:54.547Z,101089.08
2023-05-21T18:13:25.413Z,101091.02
2023-05-21T18:15:56.257Z,101100.20
2023-05-21T18:18:26.921Z,101101.01
2023-05-21T18:20:57.683Z,101098.77
2023-05-21T18:23:28.867Z,101099.88
2023-05-21T18:25:59.764Z,101100.10
2023-05-21T18:28:31.138Z,101102.14
2023-05-21T18:31:01.961Z,101101.56
2023-05-21T18:33:32.684Z,101101.20
2023-05-21T18:36:04.453Z,101103.61
2023-05-21T18:38:35.210Z,101105.66
2023-05-21T18:41:06.268Z,101105.92
2023-05-21T18:43:37.219Z,101109.02
2023-05-21T18:46:08.542Z,101108.95
2023-05-21T18:48:39.286Z,101109.83
2023-05-21T18:51:10.042Z,101111.02
2023-05-21T18:53:40.741Z,101107.00
2023-05-21T18:56:12.191Z,101106.36
2023-05-21T18:58:43.190Z,101104.52
2023-05-21T19:01:14.363Z,101102.80
2023-05-21T19:03:45.191Z,101105.21
2023-05-21T19:06:16.041Z,101106.23
2023-05-21T19:08:46.894Z,101106.44
2023-05-21T19:11:17.900Z,101103.83
2023-05-21T19:13:49.259Z,101107.58
2023-05-21T19:16:19.983Z,101108.41
2023-05-21T19:18:49.200Z,101112.25
2023-05-21T19:21:20.376Z,101120.15
2023-05-21T19:23:53.641Z,101122.17
2023-05-21T19:26:25.720Z,101126.38
2023-05-21T19:28:56.436Z,101126.11
2023-05-21T19:31:25.591Z,101128.74
2023-05-21T19:33:56.328Z,101126.56
2023-05-21T19:36:30.723Z,101123.53
2023-05-21T19:39:05.849Z,101128.04
2023-05-21T19:41:37.592Z,101119.16
2023-05-21T19:44:08.270Z,101120.67
2023-05-21T19:46:37.459Z,101119.58
2023-05-21T19:49:08.162Z,101118.16
2023-05-21T19:51:39.443Z,101115.80
2023-05-21T19:54:10.754Z,101113.30
2023-05-21T19:56:41.662Z,101109.94
2023-05-21T19:59:11.220Z,101106.98
2023-05-21T20:01:42.186Z,101104.48
2023-05-21T20:04:13.463Z,101105.14
2023-05-21T20:06:44.216Z,101105.17
2023-05-21T20:09:14.903Z,101104.33
2023-05-21T20:11:44.045Z,101106.39
2023-05-21T20:14:14.710Z,101106.14
2023-05-21T20:16:45.638Z,101106.23
2023-05-21T20:19:16.405Z,101109.26
2023-05-21T20:21:47.156Z,101109.33
2023-05-21T20:24:16.278Z,101109.02
2023-05-21T20:26:47.084Z,101108.95
2023-05-21T20:29:16.241Z,101109.74
2023-05-21T20:31:46.931Z,101113.55
2023-05-21T20:34:17.725Z,101113.34
2023-05-21T20:36:46.860Z,101105.66
2023-05-21T20:39:17.530Z,101110.63
2023-05-21T20:41:48.285Z,101110.42
2023-05-21T20:44:19.486Z,101107.80
2023-05-21T20:46:50.458Z,101104.69
2023-05-21T20:49:19.788Z,101102.91
2023-05-21T20:51:50.710Z,101105.06
2023-05-21T20:54:19.755Z,101104.11
2023-05-21T20:56:50.490Z,101100.83
2023-05-21T20:59:21.240Z,101104.73
2023-05-21T21:01:50.441Z,101105.94
2023-05-21T21:04:21.258Z,101107.73
2023-05-21T21:06:50.402Z,101107.12
2023-05-21T21:09:21.100Z,101105.70
2023-05-21T21:11:50.307Z,101103.48
2023-05-21T21:14:20.981Z,101101.33
2023-05-21T21:16:51.805Z,101103.17
2023-05-21T21:19:21.318Z,101102.81
2023-05-21T21:21:52.284Z,101105.13
2023-05-21T21:24:23.048Z,101103.68
2023-05-21T21:26:52.137Z,101108.37
2023-05-21T21:29:22.944Z,101109.52
2023-05-21T21:31:52.066Z,101106.76
2023-05-21T21:34:23.403Z,101107.89
2023-05-21T21:36:55.152Z,101109.35
2023-05-21T21:39:25.883Z,101109.33
2023-05-21T21:41:56.674Z,101113.52
2023-05-21T21:44:27.400Z,101111.58
2023-05-21T21:46:58.097Z,101107.30
2023-05-21T21:49:29.032Z,101104.08
2023-05-21T21:51:58.438Z,101103.63
2023-05-21T21:54:29.558Z,101101.94
2023-05-21T21:56:58.672Z,101101.68
2023-05-21T21:59:29.353Z,101102.27
2023-05-21T22:02:00.143Z,101104.04
2023-05-21T22:04:29.436Z,101104.64
2023-05-21T22:07:00.129Z,101105.70
2023-05-21T22:09:30.905Z,101104.34
2023-05-21T22:12:01.749Z,101101.73
2023-05-21T22:14:30.982Z,101105.86
2023-05-21T22:17:01.929Z,101107.28
2023-05-21T22:19:31.150Z,101102.14
2023-05-21T22:22:01.975Z,101102.96
2023-05-21T22:24:33.510Z,101102.84
2023-05-21T22:27:04.617Z,101102.86
2023-05-21T22:29:35.346Z,101105.63
2023-05-21T22:32:06.627Z,101103.70
2023-05-21T22:34:37.312Z,101103.60
2023-05-21T22:37:07.924Z,101104.64
2023-05-21T22:39:37.148Z,101100.27
2023-05-21T22:42:08.688Z,101101.80
2023-05-21T22:44:39.467Z,101097.73
2023-05-21T22:47:10.193Z,101097.50
2023-05-21T22:49:39.421Z,101100.25
2023-05-21T22:52:10.496Z,101098.12
2023-05-21T22:54:41.115Z,101099.41
2023-05-21T22:57:11.830Z,101100.52
2023-05-21T22:59:42.507Z,101095.52
2023-05-21T23:02:12.072Z,101097.74
2023-05-21T23:04:44.603Z,101093.63
2023-05-21T23:07:15.707Z,101091.06
2023-05-21T23:09:46.383Z,101090.52
2023-05-21T23:12:17.243Z,101089.21
2023-05-21T23:14:46.522Z,101086.80
2023-05-21T23:17:17.206Z,101091.54
2023-05-21T23:19:47.915Z,101090.49
2023-05-21T23:22:18.653Z,101089.01
2023-05-21T23:24:49.460Z,101089.69
2023-05-21T23:27:18.617Z,101090.43
2023-05-21T23:29:49.435Z,101087.24
2023-05-21T23:32:18.565Z,101088.12
2023-05-21T23:34:49.319Z,101089.63
2023-05-21T23:37:20.239Z,101090.83
2023-05-21T23:39:51.634Z,101093.54
2023-05-21T23:42:22.412Z,101090.77
2023-05-21T23:44:53.113Z,101089.06
2023-05-21T23:47:23.726Z,101088.96
2023-05-21T23:49:54.616Z,101088.52
2023-05-21T23:52:23.711Z,101086.91
2023-05-21T23:54:54.480Z,101092.65
2023-05-21T23:57:25.178Z,101091.10
2023-05-21T23:59:55.862Z,101089.72
